createdAt,value
2022-08-26T00:00:37.221Z,100501.05
2022-08-26T00:03:41.429Z,100502.75
2022-08-26T00:06:46.291Z,100491.16
2022-08-26T00:09:50.124Z,100491.45
2022-08-26T00:12:57.080Z,100486.52
2022-08-26T00:16:00.160Z,100488.75
2022-08-26T00:19:02.798Z,100486.27
2022-08-26T00:22:05.718Z,100481.84
2022-08-26T00:25:09.800Z,100484.92
2022-08-26T00:28:12.965Z,100480.77
2022-08-26T00:31:16.605Z,100482.44
2022-08-26T00:34:19.689Z,100473.89
2022-08-26T00:37:22.551Z,100473.89
2022-08-26T00:40:32.634Z,100476.12
2022-08-26T00:43:47.279Z,100475.31
2022-08-26T00:46:52.770Z,100481.13
2022-08-26T00:49:56.862Z,100471.48
2022-08-26T00:53:01.275Z,100464.29
2022-08-26T00:56:07.587Z,100466.52
2022-08-26T00:59:12.331Z,100464.05
2022-08-26T01:02:21.129Z,100468.22
2022-08-26T01:05:24.840Z,100464.08
2022-08-26T01:08:27.705Z,100463.27
2022-08-26T01:11:30.736Z,100468.25
2022-08-26T01:14:34.847Z,100461.09
2022-08-26T01:17:40.079Z,100460.56
2022-08-26T01:20:47.739Z,100462.20
2022-08-26T01:23:57.717Z,100452.30
2022-08-26T01:27:02.812Z,100459.78
2022-08-26T01:30:11.059Z,100462.30
2022-08-26T01:33:17.640Z,100453.75
2022-08-26T01:36:20.438Z,100461.82
2022-08-26T01:39:23.440Z,100459.34
2022-08-26T01:42:29.674Z,100457.17
2022-08-26T01:45:33.303Z,100458.27
2022-08-26T01:48:38.372Z,100448.03
2022-08-26T01:51:41.338Z,100452.21
2022-08-26T01:54:46.379Z,100448.91
2022-08-26T01:57:56.332Z,100450.04
2022-08-26T02:00:59.668Z,100455.85
2022-08-26T02:04:06.288Z,100446.48
2022-08-26T02:07:09.560Z,100437.67
2022-08-26T02:10:12.323Z,100442.38
2022-08-26T02:13:18.027Z,100435.47
2022-08-26T02:16:22.357Z,100429.41
2022-08-26T02:19:29.072Z,100431.07
2022-08-26T02:22:32.619Z,100426.14
2022-08-26T02:25:48.507Z,100422.84
2022-08-26T02:28:53.479Z,100418.70
2022-08-26T02:31:56.162Z,100422.59
2022-08-26T02:34:58.891Z,100427.58
2022-08-26T02:38:02.715Z,100425.09
2022-08-26T02:41:13.177Z,100426.77
2022-08-26T02:44:17.037Z,100420.92
2022-08-26T02:47:19.710Z,100416.78
2022-08-26T02:50:28.217Z,100418.41
2022-08-26T02:53:31.874Z,100421.71
2022-08-26T02:56:38.061Z,100410.38
2022-08-26T02:59:40.707Z,100419.48
2022-08-26T03:02:43.517Z,100413.68
2022-08-26T03:05:47.040Z,100425.55
2022-08-26T03:08:50.279Z,100424.95
2022-08-26T03:11:54.708Z,100419.95
2022-08-26T03:14:57.357Z,100417.20
2022-08-26T03:18:01.905Z,100416.09
2022-08-26T03:21:08.752Z,100408.09
2022-08-26T03:24:12.148Z,100414.97
2022-08-26T03:27:14.860Z,100412.20
2022-08-26T03:30:36.920Z,100418.86
2022-08-26T03:33:40.213Z,100408.62
2022-08-26T03:36:43.069Z,100410.57
2022-08-26T03:39:45.733Z,100408.62
2022-08-26T03:42:48.521Z,100418.33
2022-08-26T03:45:51.326Z,100411.14
2022-08-26T03:48:55.195Z,100408.69
2022-08-26T03:51:57.796Z,100404.27
2022-08-26T03:55:00.729Z,100410.60
2022-08-26T03:58:03.429Z,100406.48
2022-08-26T04:01:06.251Z,100405.95
2022-08-26T04:04:15.417Z,100406.80
2022-08-26T04:07:18.759Z,100406.80
2022-08-26T04:10:28.769Z,100407.30
2022-08-26T04:13:32.420Z,100412.27
2022-08-26T04:16:35.260Z,100420.27
2022-08-26T04:19:38.062Z,100413.62
2022-08-26T04:22:41.461Z,100416.91
2022-08-26T04:25:44.085Z,100422.97
2022-08-26T04:28:47.090Z,100417.42
2022-08-26T04:31:50.351Z,100416.82
2022-08-26T04:34:58.024Z,100424.55
2022-08-26T04:38:04.044Z,100421.47
2022-08-26T04:41:14.913Z,100425.08
2022-08-26T04:44:18.318Z,100418.42
2022-08-26T04:47:20.941Z,100414.52
2022-08-26T04:50:25.190Z,100419.20
2022-08-26T04:53:28.112Z,100416.97
2022-08-26T04:56:32.218Z,100424.66
2022-08-26T04:59:38.978Z,100423.78
2022-08-26T05:02:42.038Z,100422.61
2022-08-26T05:05:46.705Z,100419.80
2022-08-26T05:08:49.713Z,100420.58
2022-08-26T05:11:52.521Z,100421.36
2022-08-26T05:14:55.481Z,100430.71
2022-08-26T05:17:58.903Z,100432.02
2022-08-26T05:21:03.575Z,100435.23
2022-08-26T05:24:07.421Z,100424.66
2022-08-26T05:27:11.777Z,100426.16
2022-08-26T05:30:14.945Z,100429.32
2022-08-26T05:33:18.232Z,100437.34
2022-08-26T05:36:22.496Z,100432.22
2022-08-26T05:39:25.078Z,100441.77
2022-08-26T05:42:28.422Z,100438.33
2022-08-26T05:45:33.050Z,100447.30
2022-08-26T05:48:35.959Z,100440.09
2022-08-26T05:51:39.007Z,100447.63
2022-08-26T05:54:42.069Z,100445.30
2022-08-26T05:57:45.253Z,100438.32
2022-08-26T06:00:55.782Z,100437.55
2022-08-26T06:04:01.470Z,100441.91
2022-08-26T06:07:05.489Z,100434.63
2022-08-26T06:10:31.702Z,100438.20
2022-08-26T06:13:35.458Z,100436.77
2022-08-26T06:16:40.992Z,100434.73
2022-08-26T06:19:43.859Z,100435.04
2022-08-26T06:23:05.596Z,100435.75
2022-08-26T06:26:10.887Z,100433.20
2022-08-26T06:29:14.021Z,100427.10
2022-08-26T06:32:27.269Z,100434.59
2022-08-26T06:35:29.920Z,100431.66
2022-08-26T06:38:33.846Z,100435.38
2022-08-26T06:41:43.287Z,100427.11
2022-08-26T06:44:47.047Z,100417.88
2022-08-26T06:47:49.687Z,100416.11
2022-08-26T06:51:02.590Z,100422.17
2022-08-26T06:54:05.754Z,100415.66
2022-08-26T06:57:09.221Z,100415.31
2022-08-26T07:00:13.854Z,100419.30
2022-08-26T07:03:16.747Z,100422.97
2022-08-26T07:06:21.406Z,100413.20
2022-08-26T07:09:27.011Z,100424.56
2022-08-26T07:12:30.251Z,100409.09
2022-08-26T07:15:36.350Z,100418.31
2022-08-26T07:18:39.991Z,100417.37
2022-08-26T07:21:44.109Z,100422.02
2022-08-26T07:24:46.822Z,100411.88
2022-08-26T07:27:54.468Z,100411.09
2022-08-26T07:30:57.426Z,100415.25
2022-08-26T07:34:00.909Z,100409.19
2022-08-26T07:37:08.784Z,100406.56
2022-08-26T07:40:13.894Z,100416.37
2022-08-26T07:43:19.046Z,100402.75
2022-08-26T07:46:27.068Z,100407.27
2022-08-26T07:49:32.850Z,100413.45
2022-08-26T07:52:37.661Z,100408.19
2022-08-26T07:55:40.898Z,100406.94
2022-08-26T07:58:45.726Z,100415.93
2022-08-26T08:01:50.746Z,100416.33
2022-08-26T08:04:54.327Z,100411.64
2022-08-26T08:08:00.850Z,100409.05
2022-08-26T08:11:20.620Z,100413.59
2022-08-26T08:14:23.254Z,100413.77
2022-08-26T08:17:25.816Z,100412.59
2022-08-26T08:20:29.155Z,100406.68
2022-08-26T08:23:32.410Z,100408.88
2022-08-26T08:26:35.155Z,100412.38
2022-08-26T08:29:37.765Z,100413.33
2022-08-26T08:32:43.178Z,100403.33
2022-08-26T08:35:45.870Z,100404.50
2022-08-26T08:38:48.527Z,100399.84
2022-08-26T08:41:58.942Z,100397.63
2022-08-26T08:45:05.075Z,100379.91
2022-08-26T08:48:13.566Z,100387.93
2022-08-26T08:51:20.122Z,100379.34
2022-08-26T08:54:25.747Z,100383.17
2022-08-26T08:57:33.550Z,100393.44
2022-08-26T09:00:41.791Z,100389.14
2022-08-26T09:03:50.710Z,100384.69
2022-08-26T09:06:55.551Z,100386.89
2022-08-26T09:10:01.015Z,100387.70
2022-08-26T09:13:05.651Z,100386.53
2022-08-26T09:16:10.327Z,100382.66
2022-08-26T09:19:18.965Z,100383.56
2022-08-26T09:22:29.728Z,100379.83
2022-08-26T09:25:32.413Z,100373.15
2022-08-26T09:28:40.217Z,100379.06
2022-08-26T09:31:43.523Z,100371.63
2022-08-26T09:34:53.409Z,100375.04
2022-08-26T09:37:56.000Z,100368.38
2022-08-26T09:40:59.784Z,100371.91
2022-08-26T09:44:14.697Z,100370.43
2022-08-26T09:47:21.742Z,100359.92
2022-08-26T09:50:28.786Z,100369.01
2022-08-26T09:53:33.738Z,100371.41
2022-08-26T09:56:38.123Z,100364.40
2022-08-26T09:59:42.301Z,100364.16
2022-08-26T10:02:47.758Z,100358.91
2022-08-26T10:05:57.786Z,100358.61
2022-08-26T10:09:08.868Z,100366.95
2022-08-26T10:12:16.358Z,100346.38
2022-08-26T10:15:20.721Z,100344.38
2022-08-26T10:18:28.786Z,100351.19
2022-08-26T10:21:36.729Z,100340.19
2022-08-26T10:24:45.022Z,100333.20
2022-08-26T10:27:54.401Z,100343.42
2022-08-26T10:31:00.486Z,100344.20
2022-08-26T10:34:03.299Z,100341.39
2022-08-26T10:37:13.662Z,100344.64
2022-08-26T10:40:22.651Z,100334.53
2022-08-26T10:43:26.883Z,100336.78
2022-08-26T10:46:36.055Z,100322.49
2022-08-26T10:49:40.592Z,100331.94
2022-08-26T10:52:50.289Z,100333.67
2022-08-26T10:55:58.064Z,100335.75
2022-08-26T10:59:06.479Z,100335.02
2022-08-26T11:02:22.819Z,100323.77
2022-08-26T11:05:27.441Z,100323.88
2022-08-26T11:08:30.312Z,100320.48
2022-08-26T11:11:45.126Z,100312.50
2022-08-26T11:14:56.168Z,100305.83
2022-08-26T11:18:03.088Z,100307.61
2022-08-26T11:21:36.442Z,100306.51
2022-08-26T11:24:44.560Z,100310.18
2022-08-26T11:27:55.606Z,100309.40
2022-08-26T11:30:58.503Z,100305.34
2022-08-26T11:34:02.832Z,100294.47
2022-08-26T11:37:12.300Z,100292.92
2022-08-26T11:40:17.308Z,100287.72
2022-08-26T11:43:23.318Z,100289.73
2022-08-26T11:46:27.142Z,100294.18
2022-08-26T11:49:32.422Z,100282.05
2022-08-26T11:52:36.434Z,100285.71
2022-08-26T11:55:42.810Z,100268.70
2022-08-26T11:58:47.123Z,100262.67
2022-08-26T12:01:50.937Z,100264.70
2022-08-26T12:04:54.336Z,100262.25
2022-08-26T12:07:59.234Z,100265.89
2022-08-26T12:11:03.091Z,100264.67
2022-08-26T12:14:15.841Z,100257.77
2022-08-26T12:17:19.499Z,100257.34
2022-08-26T12:20:45.363Z,100245.59
2022-08-26T12:23:50.142Z,100239.44
2022-08-26T12:27:14.354Z,100248.38
2022-08-26T12:30:19.424Z,100245.55
2022-08-26T12:33:23.314Z,100237.89
2022-08-26T12:36:28.708Z,100237.09
2022-08-26T12:39:35.001Z,100228.19
2022-08-26T12:42:41.491Z,100223.32
2022-08-26T12:45:54.912Z,100219.23
2022-08-26T12:49:00.762Z,100222.06
2022-08-26T12:52:04.059Z,100221.68
2022-08-26T12:55:17.673Z,100212.81
2022-08-26T12:58:25.385Z,100203.12
2022-08-26T13:01:35.968Z,100206.39
2022-08-26T13:04:40.587Z,100198.66
2022-08-26T13:07:43.289Z,100193.39
2022-08-26T13:10:47.610Z,100186.52
2022-08-26T13:13:56.152Z,100195.41
2022-08-26T13:16:59.015Z,100189.34
2022-08-26T13:20:04.201Z,100188.55
2022-08-26T13:23:07.778Z,100192.61
2022-08-26T13:26:10.583Z,100181.66
2022-08-26T13:29:13.373Z,100172.77
2022-08-26T13:32:17.454Z,100172.30
2022-08-26T13:35:20.234Z,100169.83
2022-08-26T13:38:33.632Z,100166.89
2022-08-26T13:41:36.855Z,100164.46
2022-08-26T13:44:40.134Z,100155.89
2022-08-26T13:47:43.069Z,100160.70
2022-08-26T13:50:46.104Z,100159.81
2022-08-26T13:53:49.502Z,100154.84
2022-08-26T13:56:52.271Z,100154.37
2022-08-26T13:59:56.647Z,100153.88
2022-08-26T14:03:00.395Z,100151.45
2022-08-26T14:06:03.231Z,100153.16
2022-08-26T14:09:06.029Z,100144.69
2022-08-26T14:12:09.061Z,100146.72
2022-08-26T14:15:12.532Z,100147.11
2022-08-26T14:18:17.580Z,100150.73
2022-08-26T14:21:21.196Z,100143.48
2022-08-26T14:24:24.018Z,100136.97
2022-08-26T14:27:27.845Z,100148.30
2022-08-26T14:30:31.202Z,100149.97
2022-08-26T14:33:34.633Z,100151.22
2022-08-26T14:36:40.121Z,100137.39
2022-08-26T14:39:42.963Z,100137.70
2022-08-26T14:42:52.683Z,100135.14
2022-08-26T14:45:58.556Z,100141.08
2022-08-26T14:49:03.581Z,100138.20
2022-08-26T14:52:10.354Z,100134.95
2022-08-26T14:55:13.030Z,100121.19
2022-08-26T14:58:16.022Z,100119.83
2022-08-26T15:01:21.495Z,100118.78
2022-08-26T15:04:24.639Z,100108.41
2022-08-26T15:07:27.433Z,100110.31
2022-08-26T15:10:36.024Z,100111.59
2022-08-26T15:13:39.882Z,100106.33
2022-08-26T15:16:42.854Z,100104.05
2022-08-26T15:19:46.855Z,100099.74
2022-08-26T15:22:49.543Z,100097.32
2022-08-26T15:25:53.889Z,100102.19
2022-08-26T15:28:56.763Z,100110.00
2022-08-26T15:32:01.024Z,100104.81
2022-08-26T15:35:08.716Z,100100.76
2022-08-26T15:38:12.119Z,100097.91
2022-08-26T15:41:14.833Z,100095.74
2022-08-26T15:44:17.988Z,100095.86
2022-08-26T15:47:21.675Z,100095.16
2022-08-26T15:50:25.073Z,100095.08
2022-08-26T15:53:29.945Z,100104.74
2022-08-26T15:56:33.791Z,100100.09
2022-08-26T15:59:37.382Z,100093.21
2022-08-26T16:02:40.586Z,100092.27
2022-08-26T16:05:43.428Z,100098.91
2022-08-26T16:08:46.373Z,100093.04
2022-08-26T16:11:49.295Z,100103.50
2022-08-26T16:14:53.444Z,100098.11
2022-08-26T16:17:58.277Z,100102.14
2022-08-26T16:21:12.628Z,100098.25
2022-08-26T16:24:17.406Z,100095.90
2022-08-26T16:27:20.202Z,100096.43
2022-08-26T16:30:26.121Z,100087.94
2022-08-26T16:33:29.814Z,100080.63
2022-08-26T16:36:33.505Z,100084.53
2022-08-26T16:39:44.916Z,100079.51
2022-08-26T16:42:48.128Z,100074.89
2022-08-26T16:45:50.950Z,100078.77
2022-08-26T16:48:53.861Z,100083.03
2022-08-26T16:51:56.683Z,100087.66
2022-08-26T16:54:59.521Z,100075.19
2022-08-26T16:58:02.570Z,100080.95
2022-08-26T17:01:05.516Z,100076.98
2022-08-26T17:04:11.126Z,100075.50
2022-08-26T17:07:13.988Z,100080.86
2022-08-26T17:10:16.865Z,100073.27
2022-08-26T17:13:28.933Z,100076.20
2022-08-26T17:16:38.089Z,100087.52
2022-08-26T17:19:46.941Z,100078.42
2022-08-26T17:22:51.150Z,100074.82
2022-08-26T17:25:54.124Z,100070.25
2022-08-26T17:28:58.467Z,100067.31
2022-08-26T17:32:01.801Z,100066.70
2022-08-26T17:35:05.828Z,100063.73
2022-08-26T17:38:11.509Z,100059.95
2022-08-26T17:41:15.515Z,100061.33
2022-08-26T17:44:18.339Z,100052.24
2022-08-26T17:47:21.054Z,100052.32
2022-08-26T17:50:23.758Z,100050.45
2022-08-26T17:53:26.566Z,100047.37
2022-08-26T17:56:29.638Z,100044.23
2022-08-26T17:59:32.572Z,100043.14
2022-08-26T18:02:37.442Z,100040.88
2022-08-26T18:05:41.441Z,100032.12
2022-08-26T18:08:44.379Z,100033.89
2022-08-26T18:11:47.264Z,100031.18
2022-08-26T18:14:50.149Z,100033.75
2022-08-26T18:17:52.954Z,100031.23
2022-08-26T18:21:01.417Z,100031.16
2022-08-26T18:24:05.515Z,100034.98
2022-08-26T18:27:08.167Z,100037.31
2022-08-26T18:30:16.611Z,100048.02
2022-08-26T18:33:20.856Z,100055.91
2022-08-26T18:36:24.430Z,100058.80
2022-08-26T18:39:27.112Z,100062.50
2022-08-26T18:42:29.661Z,100058.97
2022-08-26T18:45:32.785Z,100066.27
2022-08-26T18:48:36.564Z,100061.92
2022-08-26T18:51:39.398Z,100062.01
2022-08-26T18:54:45.982Z,100064.05
2022-08-26T18:57:48.815Z,100059.38
2022-08-26T19:00:51.636Z,100060.27
2022-08-26T19:03:54.655Z,100060.80
2022-08-26T19:06:57.397Z,100050.67
2022-08-26T19:10:00.143Z,100059.55
2022-08-26T19:13:04.648Z,100057.80
2022-08-26T19:16:14.942Z,100063.91
2022-08-26T19:19:18.312Z,100065.59
2022-08-26T19:22:22.318Z,100064.16
2022-08-26T19:25:24.957Z,100061.91
2022-08-26T19:28:27.421Z,100072.43
2022-08-26T19:31:30.786Z,100066.59
2022-08-26T19:34:33.549Z,100069.06
2022-08-26T19:37:36.250Z,100067.63
2022-08-26T19:40:39.479Z,100079.78
2022-08-26T19:43:42.561Z,100083.09
2022-08-26T19:46:45.375Z,100080.80
2022-08-26T19:49:52.436Z,100075.27
2022-08-26T19:52:55.143Z,100079.71
2022-08-26T19:55:57.991Z,100088.59
2022-08-26T19:59:01.165Z,100083.86
2022-08-26T20:02:07.318Z,100080.75
2022-08-26T20:05:14.169Z,100077.67
2022-08-26T20:08:22.050Z,100083.25
2022-08-26T20:11:25.328Z,100082.60
2022-08-26T20:14:28.908Z,100085.89
2022-08-26T20:17:31.682Z,100087.50
2022-08-26T20:20:53.850Z,100093.24
2022-08-26T20:23:58.605Z,100094.06
2022-08-26T20:27:07.299Z,100092.59
2022-08-26T20:30:11.733Z,100098.97
2022-08-26T20:33:14.563Z,100095.52
2022-08-26T20:36:17.396Z,100091.27
2022-08-26T20:39:20.670Z,100088.16
2022-08-26T20:42:23.431Z,100089.46
2022-08-26T20:45:26.263Z,100099.91
2022-08-26T20:48:29.774Z,100094.52
2022-08-26T20:51:32.666Z,100090.75
2022-08-26T20:54:35.343Z,100091.70
2022-08-26T20:57:38.694Z,100090.70
2022-08-26T21:00:41.570Z,100091.16
2022-08-26T21:03:44.306Z,100093.78
2022-08-26T21:06:52.160Z,100091.98
2022-08-26T21:09:55.844Z,100090.64
2022-08-26T21:12:58.588Z,100095.70
2022-08-26T21:16:01.424Z,100092.77
2022-08-26T21:19:04.676Z,100093.89
2022-08-26T21:22:07.451Z,100087.34
2022-08-26T21:25:10.344Z,100080.80
2022-08-26T21:28:13.113Z,100071.81
2022-08-26T21:31:17.133Z,100066.88
2022-08-26T21:34:20.067Z,100070.81
2022-08-26T21:37:23.072Z,100073.09
2022-08-26T21:40:26.980Z,100066.55
2022-08-26T21:43:35.194Z,100059.81
2022-08-26T21:46:39.053Z,100061.90
2022-08-26T21:49:43.596Z,100069.23
2022-08-26T21:52:47.865Z,100073.25
2022-08-26T21:55:50.674Z,100074.02
2022-08-26T21:58:54.436Z,100073.98
2022-08-26T22:01:57.637Z,100061.72
2022-08-26T22:05:00.745Z,100069.65
2022-08-26T22:08:04.180Z,100064.05
2022-08-26T22:11:06.997Z,100063.36
2022-08-26T22:14:09.773Z,100050.75
2022-08-26T22:17:12.874Z,100051.70
2022-08-26T22:20:16.334Z,100040.11
2022-08-26T22:23:20.108Z,100039.61
2022-08-26T22:26:25.759Z,100041.37
2022-08-26T22:29:28.878Z,100040.55
2022-08-26T22:32:31.971Z,100044.45
2022-08-26T22:35:37.931Z,100045.29
2022-08-26T22:38:40.632Z,100045.59
2022-08-26T22:41:44.424Z,100035.66
2022-08-26T22:44:47.166Z,100031.54
2022-08-26T22:47:49.846Z,100034.64
2022-08-26T22:50:57.112Z,100037.22
2022-08-26T22:54:02.522Z,100037.30
2022-08-26T22:57:05.368Z,100036.28
2022-08-26T23:00:11.826Z,100033.14
2022-08-26T23:03:15.978Z,100034.09
2022-08-26T23:06:19.311Z,100027.84
2022-08-26T23:09:22.136Z,100024.56
2022-08-26T23:12:27.176Z,100017.20
2022-08-26T23:15:30.367Z,100015.88
2022-08-26T23:18:33.201Z,100012.09
2022-08-26T23:21:36.079Z,100005.03
2022-08-26T23:24:41.710Z,100014.59
2022-08-26T23:27:44.981Z,100012.76
2022-08-26T23:30:47.848Z,100007.11
2022-08-26T23:34:09.375Z,100005.61
2022-08-26T23:37:13.354Z,100007.97
2022-08-26T23:40:18.091Z,100004.81
2022-08-26T23:43:21.352Z,99999.33
2022-08-26T23:46:24.323Z,100001.59
2022-08-26T23:49:28.352Z,99997.80
2022-08-26T23:52:51.018Z,99993.20
2022-08-26T23:55:54.333Z,100002.44
2022-08-26T23:58:57.248Z,99996.17
